Time;durP1;ratioP1;P1;durP2;ratioP2;P2;SDS_P1;SDS_P2;PMS_P1;PMS_P2;Temp;Humidity;BMP_temperature;BMP_pressure;BME280_temperature;BME280_humidity;BME280_pressure;Samples;Min_cycle;Max_cycle;Signal;HPM_P1;HPM_P2
2022/03/16 00:02:06;;;;;;;30.75;22.98;;;;;;;;;;4954784;28;24794;-51
2022/03/16 00:04:31;;;;;;;28.73;23.00;;;;;;;;;;4964056;28;24773;-51
2022/03/16 00:06:56;;;;;;;29.60;22.63;;;;;;;;;;4951121;28;25250;-51
2022/03/16 00:09:22;;;;;;;27.80;22.50;;;;;;;;;;4953303;28;24446;-51
2022/03/16 00:11:47;;;;;;;25.45;20.92;;;;;;;;;;4967169;28;24523;-50
2022/03/16 00:14:12;;;;;;;26.00;20.50;;;;;;;;;;4957093;28;25023;-51
2022/03/16 00:16:37;;;;;;;27.37;20.73;;;;;;;;;;4963514;28;24429;-50
2022/03/16 00:19:03;;;;;;;30.20;22.73;;;;;;;;;;4960205;28;24429;-51
2022/03/16 00:21:28;;;;;;;27.97;23.30;;;;;;;;;;4962285;28;24842;-51
2022/03/16 00:23:53;;;;;;;25.98;21.95;;;;;;;;;;4958432;28;24418;-51
2022/03/16 00:26:19;;;;;;;23.93;20.20;;;;;;;;;;4961723;28;25026;-51
2022/03/16 00:28:44;;;;;;;23.95;19.92;;;;;;;;;;4959757;28;24416;-51
2022/03/16 00:31:09;;;;;;;28.37;22.60;;;;;;;;;;4959692;28;24805;-52
2022/03/16 00:33:34;;;;;;;26.63;20.07;;;;;;;;;;4955546;28;24432;-51
2022/03/16 00:35:59;;;;;;;25.50;19.77;;;;;;;;;;4964007;28;24456;-51
2022/03/16 00:38:25;;;;;;;26.60;21.58;;;;;;;;;;4959343;28;24418;-52
2022/03/16 00:40:50;;;;;;;24.83;20.70;;;;;;;;;;4963703;28;24886;-52
2022/03/16 00:43:15;;;;;;;21.70;18.03;;;;;;;;;;4963734;28;24444;-51
2022/03/16 00:45:40;;;;;;;25.83;20.43;;;;;;;;;;4962048;28;24449;-52
2022/03/16 00:48:05;;;;;;;25.90;20.42;;;;;;;;;;4954245;28;24454;-52
2022/03/16 00:50:32;;;;;;;26.40;21.88;;;;;;;;;;4961497;28;24773;-51
2022/03/16 00:52:57;;;;;;;28.35;21.45;;;;;;;;;;4962687;28;24467;-52
2022/03/16 00:55:22;;;;;;;28.37;22.43;;;;;;;;;;4959128;28;24466;-51
2022/03/16 00:57:47;;;;;;;27.20;22.93;;;;;;;;;;4960298;28;24475;-51
2022/03/16 01:00:13;;;;;;;26.40;21.52;;;;;;;;;;4961859;28;26458;-51
2022/03/16 01:02:38;;;;;;;27.90;22.60;;;;;;;;;;4965698;28;24516;-51
2022/03/16 01:05:03;;;;;;;28.03;23.43;;;;;;;;;;4964652;28;24425;-51
2022/03/16 01:07:29;;;;;;;29.23;24.30;;;;;;;;;;4964658;28;24418;-52
2022/03/16 01:09:54;;;;;;;30.27;23.87;;;;;;;;;;4964382;28;24414;-52
2022/03/16 01:12:20;;;;;;;29.57;24.27;;;;;;;;;;4961348;28;24433;-52
2022/03/16 01:14:45;;;;;;;30.58;24.90;;;;;;;;;;4965507;28;24508;-51
2022/03/16 01:17:10;;;;;;;31.20;24.83;;;;;;;;;;4963790;28;24540;-52
2022/03/16 01:19:36;;;;;;;28.67;23.50;;;;;;;;;;4966950;28;24433;-52
2022/03/16 01:22:02;;;;;;;29.03;23.00;;;;;;;;;;4958960;28;24963;-52
2022/03/16 01:24:28;;;;;;;28.40;22.40;;;;;;;;;;4950569;28;26343;-52
2022/03/16 01:26:53;;;;;;;30.43;23.37;;;;;;;;;;4956864;28;24593;-51
2022/03/16 01:29:18;;;;;;;29.80;24.00;;;;;;;;;;4958850;28;24414;-52
2022/03/16 01:31:43;;;;;;;32.83;24.85;;;;;;;;;;4963329;28;24426;-52
2022/03/16 01:34:08;;;;;;;26.88;22.95;;;;;;;;;;4949854;28;25039;-51
2022/03/16 01:36:33;;;;;;;28.23;22.67;;;;;;;;;;4954167;28;24413;-52
2022/03/16 01:38:59;;;;;;;28.70;23.00;;;;;;;;;;4966313;28;24477;-52
2022/03/16 01:41:24;;;;;;;30.67;22.83;;;;;;;;;;4962354;28;25028;-52
2022/03/16 01:43:52;;;;;;;26.25;21.20;;;;;;;;;;4953722;28;24415;-52
2022/03/16 01:46:19;;;;;;;26.13;21.30;;;;;;;;;;4963254;28;24422;-52
2022/03/16 01:48:44;;;;;;;30.50;23.00;;;;;;;;;;4963871;28;24468;-51
2022/03/16 01:51:09;;;;;;;29.05;23.25;;;;;;;;;;4960403;28;24473;-52
2022/03/16 01:53:35;;;;;;;26.70;22.10;;;;;;;;;;4953418;28;24428;-52
2022/03/16 01:56:00;;;;;;;25.87;20.30;;;;;;;;;;4949614;28;24864;-51
2022/03/16 01:58:25;;;;;;;25.80;21.23;;;;;;;;;;4956086;28;25038;-52
2022/03/16 02:00:51;;;;;;;28.13;22.33;;;;;;;;;;4963565;28;24421;-51
2022/03/16 02:03:16;;;;;;;25.17;20.63;;;;;;;;;;4963411;28;24971;-52
2022/03/16 02:05:41;;;;;;;23.10;19.33;;;;;;;;;;4965345;28;24414;-52
2022/03/16 02:08:10;;;;;;;27.45;22.00;;;;;;;;;;4951213;28;24434;-52
2022/03/16 02:10:35;;;;;;;26.88;22.00;;;;;;;;;;4969898;28;24505;-52
2022/03/16 02:13:01;;;;;;;30.20;24.07;;;;;;;;;;4970835;28;24505;-52
2022/03/16 02:15:26;;;;;;;25.63;21.50;;;;;;;;;;4967176;28;25259;-52
2022/03/16 02:17:54;;;;;;;31.03;22.70;;;;;;;;;;4952016;28;24461;-52
2022/03/16 02:20:20;;;;;;;27.63;21.50;;;;;;;;;;4962827;28;24435;-52
2022/03/16 02:22:52;;;;;;;23.73;20.00;;;;;;;;;;4963073;28;24995;-51
2022/03/16 02:25:18;;;;;;;24.83;19.77;;;;;;;;;;4960478;28;24456;-52
2022/03/16 02:27:43;;;;;;;24.23;21.48;;;;;;;;;;4970273;28;24430;-52
2022/03/16 02:30:09;;;;;;;30.73;21.73;;;;;;;;;;4955449;28;24870;-52
2022/03/16 02:32:34;;;;;;;26.00;20.60;;;;;;;;;;4966497;28;24998;-51
2022/03/16 02:34:59;;;;;;;28.37;21.70;;;;;;;;;;4957073;28;24960;-52
2022/03/16 02:37:24;;;;;;;29.52;22.95;;;;;;;;;;4965917;28;24499;-52
2022/03/16 02:39:49;;;;;;;26.38;21.20;;;;;;;;;;4964474;28;24516;-51
2022/03/16 02:42:14;;;;;;;26.98;21.88;;;;;;;;;;4955732;28;24434;-52
2022/03/16 02:44:40;;;;;;;26.80;21.60;;;;;;;;;;4954577;28;24453;-51
2022/03/16 02:47:05;;;;;;;30.02;22.50;;;;;;;;;;4957696;28;24604;-51
2022/03/16 02:49:31;;;;;;;28.23;22.07;;;;;;;;;;4958955;28;24428;-51
2022/03/16 02:51:56;;;;;;;30.02;23.20;;;;;;;;;;4960815;28;25031;-52
2022/03/16 02:54:21;;;;;;;27.77;21.83;;;;;;;;;;4952576;28;24518;-52
2022/03/16 02:56:47;;;;;;;24.70;21.02;;;;;;;;;;4966929;28;24418;-51
2022/03/16 02:59:12;;;;;;;28.23;21.88;;;;;;;;;;4965655;28;24433;-52
2022/03/16 03:01:38;;;;;;;28.98;22.48;;;;;;;;;;4960798;28;25230;-52
2022/03/16 03:04:03;;;;;;;27.02;20.50;;;;;;;;;;4969440;28;24430;-51
2022/03/16 03:06:30;;;;;;;25.90;20.43;;;;;;;;;;4966725;28;24505;-52
2022/03/16 03:08:55;;;;;;;27.35;22.40;;;;;;;;;;4962782;28;24413;-52
2022/03/16 03:11:20;;;;;;;25.75;20.73;;;;;;;;;;4960150;28;24520;-51
2022/03/16 03:13:46;;;;;;;27.00;22.07;;;;;;;;;;4961573;28;24438;-52
2022/03/16 03:16:11;;;;;;;24.67;19.35;;;;;;;;;;4954468;28;24414;-52
2022/03/16 03:18:37;;;;;;;25.40;20.03;;;;;;;;;;4954905;28;25010;-53
2022/03/16 03:21:03;;;;;;;24.65;20.00;;;;;;;;;;4960293;28;24968;-53
2022/03/16 03:23:29;;;;;;;27.02;21.35;;;;;;;;;;4962882;28;25187;-52
2022/03/16 03:25:54;;;;;;;28.67;22.43;;;;;;;;;;4959893;28;24418;-52
2022/03/16 03:28:19;;;;;;;27.20;21.45;;;;;;;;;;4954094;28;24437;-52
2022/03/16 03:30:44;;;;;;;25.27;20.13;;;;;;;;;;4961927;28;24418;-52
2022/03/16 03:33:09;;;;;;;29.67;21.27;;;;;;;;;;4963030;28;24426;-52
2022/03/16 03:35:34;;;;;;;27.70;21.70;;;;;;;;;;4958266;28;24429;-52
2022/03/16 03:38:00;;;;;;;26.43;21.83;;;;;;;;;;4962407;28;24456;-52
2022/03/16 03:40:25;;;;;;;26.57;20.40;;;;;;;;;;4957755;28;24513;-52
2022/03/16 03:42:51;;;;;;;24.65;19.30;;;;;;;;;;4953998;28;24829;-52
2022/03/16 03:45:16;;;;;;;27.90;21.08;;;;;;;;;;4959028;28;24516;-52
2022/03/16 03:47:41;;;;;;;28.55;22.17;;;;;;;;;;4965815;28;24630;-53
2022/03/16 03:50:06;;;;;;;27.73;20.92;;;;;;;;;;4951583;28;24465;-52
2022/03/16 03:52:32;;;;;;;27.73;20.90;;;;;;;;;;4955626;28;24421;-51
2022/03/16 03:54:57;;;;;;;24.23;19.80;;;;;;;;;;4965728;28;24485;-52
2022/03/16 03:57:22;;;;;;;27.30;20.65;;;;;;;;;;4957491;28;24508;-52
2022/03/16 03:59:47;;;;;;;23.52;19.50;;;;;;;;;;4958370;28;24425;-52
2022/03/16 04:02:12;;;;;;;24.30;19.27;;;;;;;;;;4954927;28;24856;-52
2022/03/16 04:04:37;;;;;;;24.40;19.65;;;;;;;;;;4958143;28;24498;-52
2022/03/16 04:07:03;;;;;;;28.20;21.02;;;;;;;;;;4958743;28;24822;-52
2022/03/16 04:09:28;;;;;;;26.83;20.10;;;;;;;;;;4954797;28;24416;-52
2022/03/16 04:11:53;;;;;;;25.80;20.00;;;;;;;;;;4957316;28;25015;-52
2022/03/16 04:14:18;;;;;;;25.90;21.58;;;;;;;;;;4952601;28;24976;-51
2022/03/16 04:16:43;;;;;;;25.40;20.43;;;;;;;;;;4955151;28;24520;-52
2022/03/16 04:19:08;;;;;;;25.60;20.33;;;;;;;;;;4965942;28;25264;-52
2022/03/16 04:21:34;;;;;;;25.73;20.02;;;;;;;;;;4964600;28;24413;-52
2022/03/16 04:23:59;;;;;;;26.80;20.30;;;;;;;;;;4953281;28;24414;-52
2022/03/16 04:26:24;;;;;;;25.47;19.30;;;;;;;;;;4964489;28;24540;-52
2022/03/16 04:28:49;;;;;;;23.45;19.60;;;;;;;;;;4960049;28;24512;-52
2022/03/16 04:31:14;;;;;;;25.23;19.63;;;;;;;;;;4950834;28;24468;-52
2022/03/16 04:33:40;;;;;;;22.80;18.87;;;;;;;;;;4966605;28;24777;-51
2022/03/16 04:36:05;;;;;;;24.07;19.77;;;;;;;;;;4963580;28;24441;-52
2022/03/16 04:38:30;;;;;;;24.53;19.83;;;;;;;;;;4957107;28;24840;-52
2022/03/16 04:40:56;;;;;;;24.13;19.30;;;;;;;;;;4959515;28;24860;-52
2022/03/16 04:43:21;;;;;;;25.95;20.60;;;;;;;;;;4954054;28;24449;-52
2022/03/16 04:45:46;;;;;;;21.95;18.00;;;;;;;;;;4966882;28;24976;-52
2022/03/16 04:48:11;;;;;;;25.33;20.60;;;;;;;;;;4966310;28;24434;-52
2022/03/16 04:50:40;;;;;;;20.67;18.23;;;;;;;;;;4950230;28;24469;-51
2022/03/16 04:53:05;;;;;;;22.85;18.13;;;;;;;;;;4957393;28;24414;-52
2022/03/16 04:55:31;;;;;;;22.50;18.93;;;;;;;;;;4965742;28;24500;-52
2022/03/16 04:57:56;;;;;;;25.33;20.40;;;;;;;;;;4957076;28;24821;-52
2022/03/16 05:00:21;;;;;;;24.73;19.20;;;;;;;;;;4958579;28;24485;-52
2022/03/16 05:02:46;;;;;;;20.67;18.13;;;;;;;;;;4955701;28;24420;-52
2022/03/16 05:05:12;;;;;;;24.30;19.15;;;;;;;;;;4952932;28;24485;-51
2022/03/16 05:07:37;;;;;;;22.77;18.80;;;;;;;;;;4952838;28;24430;-53
2022/03/16 05:10:03;;;;;;;24.98;20.40;;;;;;;;;;4950713;28;24417;-51
2022/03/16 05:12:35;;;;;;;22.83;18.70;;;;;;;;;;4957488;28;24485;-51
2022/03/16 05:15:00;;;;;;;22.90;18.52;;;;;;;;;;4956255;28;25024;-52
2022/03/16 05:17:25;;;;;;;22.25;18.33;;;;;;;;;;4952996;28;24526;-53
2022/03/16 05:19:51;;;;;;;25.42;20.80;;;;;;;;;;4959757;28;24480;-53
2022/03/16 05:22:16;;;;;;;22.10;18.63;;;;;;;;;;4965549;28;24978;-53
2022/03/16 05:24:42;;;;;;;25.50;20.00;;;;;;;;;;4964103;28;24441;-53
2022/03/16 05:27:07;;;;;;;25.57;20.03;;;;;;;;;;4964147;28;24851;-53
2022/03/16 05:29:32;;;;;;;24.43;20.13;;;;;;;;;;4953628;28;24437;-53
2022/03/16 05:31:57;;;;;;;22.43;18.67;;;;;;;;;;4962624;28;24962;-53
2022/03/16 05:34:22;;;;;;;25.53;20.10;;;;;;;;;;4953719;28;24434;-52
2022/03/16 05:36:48;;;;;;;25.27;20.45;;;;;;;;;;4950651;28;24427;-55
2022/03/16 05:39:13;;;;;;;26.27;21.10;;;;;;;;;;4962659;28;24510;-52
2022/03/16 05:41:38;;;;;;;26.73;20.77;;;;;;;;;;4955865;28;24480;-52
2022/03/16 05:44:03;;;;;;;26.10;20.33;;;;;;;;;;4954847;28;25038;-52
2022/03/16 05:46:28;;;;;;;27.47;21.50;;;;;;;;;;4949770;28;24561;-52
2022/03/16 05:48:53;;;;;;;25.23;20.47;;;;;;;;;;4964535;28;24420;-52
2022/03/16 05:51:18;;;;;;;26.43;21.10;;;;;;;;;;4952529;28;24473;-52
2022/03/16 05:53:44;;;;;;;24.77;19.23;;;;;;;;;;4949902;28;24519;-52
2022/03/16 05:56:09;;;;;;;27.00;21.13;;;;;;;;;;4962876;28;25024;-52
2022/03/16 05:58:34;;;;;;;23.98;19.50;;;;;;;;;;4960188;28;24421;-53
2022/03/16 06:00:59;;;;;;;26.15;20.67;;;;;;;;;;4958222;28;24544;-53
2022/03/16 06:03:24;;;;;;;26.67;21.10;;;;;;;;;;4951786;28;24480;-53
2022/03/16 06:05:49;;;;;;;25.35;19.75;;;;;;;;;;4956378;28;24978;-53
2022/03/16 06:08:15;;;;;;;23.40;19.60;;;;;;;;;;4953726;28;24477;-53
2022/03/16 06:10:40;;;;;;;25.70;19.20;;;;;;;;;;4958608;28;24979;-52
2022/03/16 06:13:06;;;;;;;28.70;20.35;;;;;;;;;;4955413;28;24410;-51
2022/03/16 06:15:37;;;;;;;26.37;20.53;;;;;;;;;;4946982;28;25052;-52
2022/03/16 06:18:02;;;;;;;23.20;19.88;;;;;;;;;;4958702;28;24989;-53
2022/03/16 06:20:31;;;;;;;24.37;19.67;;;;;;;;;;4949087;28;24467;-53
2022/03/16 06:22:56;;;;;;;25.50;19.60;;;;;;;;;;4960377;28;25015;-53
2022/03/16 06:25:24;;;;;;;21.75;18.08;;;;;;;;;;4965340;28;24429;-53
2022/03/16 06:27:49;;;;;;;24.00;18.13;;;;;;;;;;4947293;28;24854;-53
2022/03/16 06:30:14;;;;;;;22.70;18.67;;;;;;;;;;4949310;28;25036;-53
2022/03/16 06:32:42;;;;;;;24.47;18.77;;;;;;;;;;4949126;28;24426;-52
2022/03/16 06:35:08;;;;;;;25.70;19.77;;;;;;;;;;4946090;28;24483;-53
2022/03/16 06:37:33;;;;;;;21.65;18.90;;;;;;;;;;4961168;28;24857;-52
2022/03/16 06:39:58;;;;;;;25.10;20.07;;;;;;;;;;4968530;28;24453;-53
2022/03/16 06:42:23;;;;;;;26.33;20.27;;;;;;;;;;4965849;28;25011;-53
2022/03/16 06:44:48;;;;;;;25.23;20.10;;;;;;;;;;4968126;28;24488;-53
2022/03/16 06:47:13;;;;;;;23.85;19.25;;;;;;;;;;4962818;28;24456;-52
2022/03/16 06:49:38;;;;;;;23.80;19.50;;;;;;;;;;4948868;28;24758;-54
2022/03/16 06:52:04;;;;;;;23.52;19.95;;;;;;;;;;4948559;28;24621;-53
2022/03/16 06:54:29;;;;;;;25.10;20.43;;;;;;;;;;4949355;28;24397;-53
2022/03/16 06:56:55;;;;;;;23.35;19.52;;;;;;;;;;4951912;28;24465;-52
2022/03/16 06:59:20;;;;;;;20.90;18.60;;;;;;;;;;4955982;28;24901;-54
2022/03/16 07:01:45;;;;;;;24.33;18.20;;;;;;;;;;4961402;28;24421;-53
2022/03/16 07:04:10;;;;;;;24.88;20.27;;;;;;;;;;4969723;28;24434;-52
2022/03/16 07:06:35;;;;;;;24.47;18.60;;;;;;;;;;4977943;28;24995;-52
2022/03/16 07:09:02;;;;;;;22.38;18.75;;;;;;;;;;4968059;28;24449;-52
2022/03/16 07:11:27;;;;;;;25.95;18.70;;;;;;;;;;4967632;28;24421;-52
2022/03/16 07:16:36;;;;;;;23.60;19.00;;;;;;;;;;4959210;28;24472;-52
2022/03/16 07:19:02;;;;;;;22.63;18.75;;;;;;;;;;4965830;28;25365;-52
2022/03/16 07:21:27;;;;;;;23.67;19.13;;;;;;;;;;4961111;28;24417;-53
2022/03/16 07:23:52;;;;;;;25.27;20.00;;;;;;;;;;4959154;28;24445;-53
2022/03/16 07:26:17;;;;;;;23.83;19.55;;;;;;;;;;4963957;28;24808;-53
2022/03/16 07:28:42;;;;;;;22.13;19.70;;;;;;;;;;4954861;28;24422;-54
2022/03/16 07:31:08;;;;;;;24.13;20.23;;;;;;;;;;4953189;28;24802;-53
2022/03/16 07:33:33;;;;;;;24.48;19.40;;;;;;;;;;4950904;28;24502;-53
2022/03/16 07:35:59;;;;;;;21.95;19.55;;;;;;;;;;4950851;28;24477;-53
2022/03/16 07:38:24;;;;;;;22.83;20.40;;;;;;;;;;4951179;28;24487;-52
2022/03/16 07:40:49;;;;;;;25.02;19.95;;;;;;;;;;4964039;28;24604;-52
2022/03/16 07:43:14;;;;;;;24.50;20.03;;;;;;;;;;4970135;28;24410;-52
2022/03/16 07:45:40;;;;;;;21.80;18.10;;;;;;;;;;4970639;28;24914;-52
2022/03/16 07:48:05;;;;;;;24.70;18.57;;;;;;;;;;4969460;28;25126;-52
2022/03/16 07:50:31;;;;;;;23.23;18.17;;;;;;;;;;4967383;28;24425;-53
2022/03/16 07:52:56;;;;;;;22.03;18.93;;;;;;;;;;4969885;28;24410;-53
2022/03/16 07:55:21;;;;;;;24.37;18.77;;;;;;;;;;4970209;28;24412;-53
2022/03/16 07:57:47;;;;;;;23.63;19.47;;;;;;;;;;4969821;28;24492;-53
2022/03/16 08:00:12;;;;;;;22.20;18.70;;;;;;;;;;4970015;28;24398;-53
2022/03/16 08:02:38;;;;;;;24.80;20.63;;;;;;;;;;4965375;28;24429;-53
2022/03/16 08:05:05;;;;;;;21.45;18.50;;;;;;;;;;4966237;28;24464;-51
2022/03/16 08:07:30;;;;;;;23.20;18.80;;;;;;;;;;4970218;28;24513;-51
2022/03/16 08:09:58;;;;;;;22.60;17.83;;;;;;;;;;4967985;28;24587;-51
2022/03/16 08:12:23;;;;;;;20.58;17.65;;;;;;;;;;4969875;28;24397;-52
2022/03/16 08:14:50;;;;;;;20.90;17.80;;;;;;;;;;4970857;28;24413;-53
2022/03/16 08:17:15;;;;;;;21.70;18.42;;;;;;;;;;4969274;28;24480;-53
2022/03/16 08:19:40;;;;;;;22.17;18.70;;;;;;;;;;4964735;28;24433;-53
2022/03/16 08:22:05;;;;;;;21.85;18.80;;;;;;;;;;4969650;28;24505;-53
2022/03/16 08:24:30;;;;;;;21.83;18.73;;;;;;;;;;4969722;28;24413;-53
2022/03/16 08:26:55;;;;;;;19.60;17.50;;;;;;;;;;4965361;28;24569;-54
2022/03/16 08:29:21;;;;;;;20.40;17.50;;;;;;;;;;4950571;29;24406;-53
2022/03/16 08:31:46;;;;;;;21.10;18.38;;;;;;;;;;4957461;28;24920;-52
2022/03/16 08:34:11;;;;;;;21.48;19.17;;;;;;;;;;4969644;28;24420;-52
2022/03/16 08:36:38;;;;;;;20.75;18.33;;;;;;;;;;4964276;28;24397;-53
2022/03/16 08:39:04;;;;;;;22.67;19.60;;;;;;;;;;4966695;28;24417;-53
2022/03/16 08:41:31;;;;;;;19.83;17.50;;;;;;;;;;4969418;28;24741;-52
2022/03/16 08:43:57;;;;;;;20.35;18.15;;;;;;;;;;4969004;28;24991;-52
2022/03/16 08:46:22;;;;;;;23.37;18.10;;;;;;;;;;4968584;28;24426;-52
2022/03/16 08:48:47;;;;;;;135.10;37.78;;;;;;;;;;4967495;28;24433;-52
2022/03/16 08:51:12;;;;;;;44.65;23.95;;;;;;;;;;4968962;28;24398;-53
2022/03/16 08:53:38;;;;;;;27.00;22.65;;;;;;;;;;4968503;28;24414;-52
2022/03/16 08:56:04;;;;;;;24.93;20.93;;;;;;;;;;4968938;28;24517;-52
2022/03/16 08:58:29;;;;;;;24.70;21.52;;;;;;;;;;4967485;28;24418;-51
2022/03/16 09:00:54;;;;;;;24.48;21.00;;;;;;;;;;4968637;28;24397;-51
2022/03/16 09:03:19;;;;;;;21.77;19.47;;;;;;;;;;4969085;28;25035;-51
2022/03/16 09:05:45;;;;;;;35.67;22.40;;;;;;;;;;4968169;28;24895;-52
2022/03/16 09:08:10;;;;;;;52.47;26.87;;;;;;;;;;4968243;28;24424;-52
2022/03/16 09:10:35;;;;;;;44.90;24.63;;;;;;;;;;4969000;28;24390;-52
2022/03/16 09:13:00;;;;;;;25.90;20.27;;;;;;;;;;4964524;28;24432;-52
2022/03/16 09:15:26;;;;;;;20.47;18.37;;;;;;;;;;4969054;28;24401;-52
2022/03/16 09:17:52;;;;;;;20.60;17.43;;;;;;;;;;4967404;28;24457;-51
2022/03/16 09:20:17;;;;;;;23.45;20.95;;;;;;;;;;4969119;28;24507;-53
2022/03/16 09:22:42;;;;;;;30.50;24.05;;;;;;;;;;4968454;28;24445;-53
2022/03/16 09:25:08;;;;;;;52.75;28.02;;;;;;;;;;4976256;28;24907;-52
2022/03/16 09:27:35;;;;;;;36.23;25.27;;;;;;;;;;4976610;28;24433;-52
2022/03/16 09:30:00;;;;;;;27.10;24.40;;;;;;;;;;4968866;28;24820;-52
2022/03/16 09:32:26;;;;;;;26.70;23.60;;;;;;;;;;4968085;28;24409;-51
2022/03/16 09:34:51;;;;;;;27.73;23.70;;;;;;;;;;4969219;28;24449;-52
2022/03/16 09:37:16;;;;;;;26.30;23.43;;;;;;;;;;4965482;28;24580;-53
2022/03/16 09:39:41;;;;;;;27.77;24.77;;;;;;;;;;4949503;28;24390;-53
2022/03/16 09:42:08;;;;;;;32.80;27.48;;;;;;;;;;4958076;28;24488;-52
2022/03/16 09:44:33;;;;;;;30.48;26.42;;;;;;;;;;4968482;28;24951;-52
2022/03/16 09:46:59;;;;;;;29.93;26.30;;;;;;;;;;4948651;28;24423;-52
2022/03/16 09:49:26;;;;;;;29.97;25.57;;;;;;;;;;4962163;28;24417;-53
2022/03/16 09:51:51;;;;;;;31.20;27.88;;;;;;;;;;4967989;28;24405;-52
2022/03/16 09:54:16;;;;;;;52.80;28.27;;;;;;;;;;4967144;28;24452;-52
2022/03/16 09:56:43;;;;;;;30.02;24.85;;;;;;;;;;4968046;28;24464;-53
2022/03/16 09:59:09;;;;;;;39.70;26.17;;;;;;;;;;4966466;28;24424;-52
2022/03/16 10:01:35;;;;;;;35.00;27.95;;;;;;;;;;4967687;28;24389;-52
2022/03/16 10:04:00;;;;;;;28.43;25.17;;;;;;;;;;4967590;28;24833;-53
2022/03/16 10:06:25;;;;;;;27.87;24.60;;;;;;;;;;4967967;28;24389;-53
2022/03/16 10:14:18;;;;;;;30.47;25.80;;;;;;;;;;4967434;28;24441;-52
2022/03/16 10:19:49;;;;;;;27.73;23.73;;;;;;;;;;4966547;28;24844;-52
2022/03/16 10:22:21;;;;;;;28.75;25.33;;;;;;;;;;4959441;28;24426;-52
2022/03/16 10:24:46;;;;;;;24.87;21.70;;;;;;;;;;4963654;28;24425;-52
2022/03/16 10:27:11;;;;;;;25.80;23.00;;;;;;;;;;4966387;28;24405;-53
2022/03/16 10:29:36;;;;;;;23.90;21.30;;;;;;;;;;4969358;28;24737;-52
2022/03/16 10:32:03;;;;;;;25.80;23.03;;;;;;;;;;4969988;28;24410;-53
2022/03/16 10:34:28;;;;;;;25.02;21.90;;;;;;;;;;4971151;28;24393;-53
2022/03/16 10:36:53;;;;;;;27.00;24.10;;;;;;;;;;4966969;28;24827;-52
2022/03/16 10:39:31;;;;;;;25.10;22.35;;;;;;;;;;4971410;28;24425;-53
2022/03/16 10:47:35;;;;;;;26.95;22.90;;;;;;;;;;4969063;28;24440;-53
2022/03/16 10:50:03;;;;;;;25.23;22.52;;;;;;;;;;4971308;28;24406;-52
2022/03/16 10:52:32;;;;;;;20.15;17.95;;;;;;;;;;4970839;28;24953;-53
2022/03/16 10:54:57;;;;;;;19.65;17.20;;;;;;;;;;4970849;28;24404;-53
2022/03/16 10:57:22;;;;;;;22.13;19.83;;;;;;;;;;4969160;28;24509;-52
2022/03/16 10:59:50;;;;;;;21.10;18.87;;;;;;;;;;4951971;28;24590;-52
2022/03/16 11:02:17;;;;;;;26.13;22.60;;;;;;;;;;4951942;28;24461;-52
2022/03/16 11:04:43;;;;;;;24.00;21.33;;;;;;;;;;4951778;28;24560;-52
2022/03/16 11:07:08;;;;;;;23.20;20.73;;;;;;;;;;4951640;28;24418;-51
2022/03/16 11:09:35;;;;;;;24.00;21.50;;;;;;;;;;4964190;28;24820;-52
2022/03/16 11:14:48;;;;;;;21.35;19.17;;;;;;;;;;4970183;28;24428;-52
2022/03/16 11:17:14;;;;;;;25.63;23.00;;;;;;;;;;4967283;28;24417;-52
2022/03/16 11:19:44;;;;;;;22.17;19.77;;;;;;;;;;4971728;28;24412;-53
2022/03/16 11:22:11;;;;;;;22.02;19.73;;;;;;;;;;4970395;28;24405;-52
2022/03/16 11:24:39;;;;;;;21.70;19.50;;;;;;;;;;4970993;28;24421;-52
2022/03/16 11:27:21;;;;;;;22.52;20.30;;;;;;;;;;4969687;28;24434;-52
2022/03/16 11:29:58;;;;;;;21.58;19.27;;;;;;;;;;4971382;28;24497;-53
2022/03/16 11:32:23;;;;;;;22.42;19.85;;;;;;;;;;4970631;28;24382;-52
2022/03/16 11:34:54;;;;;;;21.13;18.53;;;;;;;;;;4970468;28;25093;-52
2022/03/16 11:37:19;;;;;;;27.48;23.75;;;;;;;;;;4962018;28;24534;-52
2022/03/16 11:39:46;;;;;;;21.48;19.33;;;;;;;;;;4969964;28;24526;-52
2022/03/16 11:42:14;;;;;;;20.40;18.20;;;;;;;;;;4968443;28;24581;-52
2022/03/16 11:44:40;;;;;;;20.70;18.27;;;;;;;;;;4970095;28;24444;-52
2022/03/16 11:47:11;;;;;;;15.60;14.00;;;;;;;;;;4968346;28;24497;-52
2022/03/16 11:49:38;;;;;;;16.70;15.00;;;;;;;;;;4951016;28;24475;-52
2022/03/16 11:52:04;;;;;;;16.00;14.40;;;;;;;;;;4951109;28;24394;-52
2022/03/16 11:54:45;;;;;;;16.33;14.73;;;;;;;;;;4950316;28;24703;-53
2022/03/16 11:57:11;;;;;;;18.25;15.77;;;;;;;;;;4950990;28;24476;-52
2022/03/16 11:59:40;;;;;;;16.20;14.60;;;;;;;;;;4968784;28;25009;-52
2022/03/16 12:02:21;;;;;;;18.88;16.83;;;;;;;;;;4969938;28;24429;-52
2022/03/16 12:04:46;;;;;;;22.08;19.88;;;;;;;;;;4969455;28;24460;-52
2022/03/16 12:07:12;;;;;;;21.92;19.58;;;;;;;;;;4969705;28;24978;-52
2022/03/16 12:09:40;;;;;;;23.25;20.85;;;;;;;;;;4956860;28;24577;-52
2022/03/16 12:14:56;;;;;;;21.02;18.83;;;;;;;;;;4967104;28;24389;-52
2022/03/16 12:17:22;;;;;;;19.73;17.73;;;;;;;;;;4969655;28;24424;-52
2022/03/16 12:20:06;;;;;;;21.95;19.75;;;;;;;;;;4969656;28;24449;-53
2022/03/16 12:22:36;;;;;;;18.27;16.48;;;;;;;;;;4967773;28;24425;-52
2022/03/16 12:25:20;;;;;;;15.77;14.18;;;;;;;;;;4969567;28;24986;-52
2022/03/16 12:30:35;;;;;;;16.27;14.77;;;;;;;;;;4969299;28;24622;-53
2022/03/16 12:33:00;;;;;;;17.77;15.98;;;;;;;;;;4968067;28;24410;-52
2022/03/16 12:35:32;;;;;;;15.80;14.27;;;;;;;;;;4969190;28;24761;-52
2022/03/16 12:37:57;;;;;;;15.45;13.27;;;;;;;;;;4969941;28;24413;-52
2022/03/16 12:40:22;;;;;;;17.17;15.40;;;;;;;;;;4969473;28;24406;-52
2022/03/16 12:42:53;;;;;;;14.97;13.40;;;;;;;;;;4967050;28;25120;-52
2022/03/16 12:45:20;;;;;;;16.42;13.63;;;;;;;;;;4969444;28;24444;-53
2022/03/16 12:47:49;;;;;;;14.50;13.10;;;;;;;;;;4966185;28;24472;-52
2022/03/16 12:50:16;;;;;;;12.55;11.35;;;;;;;;;;4958562;28;24446;-52
2022/03/16 12:52:48;;;;;;;16.98;15.27;;;;;;;;;;4963625;28;24964;-52
2022/03/16 12:55:15;;;;;;;17.23;15.52;;;;;;;;;;4965748;28;24954;-52
2022/03/16 12:57:49;;;;;;;15.27;13.77;;;;;;;;;;4967180;28;24485;-52
2022/03/16 13:00:14;;;;;;;16.92;15.23;;;;;;;;;;4949837;28;24421;-52
2022/03/16 13:02:41;;;;;;;18.70;16.80;;;;;;;;;;4949780;28;24481;-52
2022/03/16 13:05:08;;;;;;;19.80;17.90;;;;;;;;;;4947467;28;24398;-52
2022/03/16 13:07:35;;;;;;;18.15;16.35;;;;;;;;;;4949323;28;24422;-53
2022/03/16 13:10:00;;;;;;;20.63;18.52;;;;;;;;;;4950373;28;24453;-52
2022/03/16 13:12:26;;;;;;;19.97;17.97;;;;;;;;;;4949233;28;24406;-52
2022/03/16 13:14:53;;;;;;;17.27;15.67;;;;;;;;;;4949186;28;24456;-52
2022/03/16 13:17:18;;;;;;;18.10;16.30;;;;;;;;;;4949295;28;25005;-52
2022/03/16 13:19:49;;;;;;;17.10;15.40;;;;;;;;;;4959219;28;24422;-52
2022/03/16 13:22:17;;;;;;;16.47;14.93;;;;;;;;;;4960918;28;24513;-51
2022/03/16 13:24:44;;;;;;;16.73;15.23;;;;;;;;;;4946952;28;24501;-52
2022/03/16 13:27:16;;;;;;;15.88;14.48;;;;;;;;;;4954319;28;24921;-51
2022/03/16 13:29:43;;;;;;;14.20;12.90;;;;;;;;;;4968872;28;24421;-53
2022/03/16 13:32:08;;;;;;;15.50;14.00;;;;;;;;;;4966589;28;24432;-52
2022/03/16 13:34:37;;;;;;;14.23;12.90;;;;;;;;;;4967229;28;24940;-53
2022/03/16 13:37:18;;;;;;;14.13;12.73;;;;;;;;;;4950102;28;24473;-51
2022/03/16 13:39:54;;;;;;;15.10;13.70;;;;;;;;;;4949076;28;24417;-52
2022/03/16 13:42:19;;;;;;;15.32;13.82;;;;;;;;;;4945672;28;24418;-52
2022/03/16 13:44:44;;;;;;;16.17;14.63;;;;;;;;;;4962167;28;24568;-52
2022/03/16 13:47:12;;;;;;;15.43;13.97;;;;;;;;;;4962122;28;24464;-52
2022/03/16 13:49:37;;;;;;;13.73;12.50;;;;;;;;;;4963626;28;24857;-52
2022/03/16 13:52:04;;;;;;;14.70;13.20;;;;;;;;;;4957118;28;25051;-53
2022/03/16 13:54:29;;;;;;;23.20;16.07;;;;;;;;;;4957934;28;24992;-52
2022/03/16 13:56:54;;;;;;;16.30;14.90;;;;;;;;;;4956897;28;24425;-52
2022/03/16 13:59:19;;;;;;;16.00;14.50;;;;;;;;;;4957585;28;24800;-52
2022/03/16 14:01:45;;;;;;;14.60;13.30;;;;;;;;;;4965177;28;24971;-52
2022/03/16 14:04:10;;;;;;;17.30;15.70;;;;;;;;;;4956803;28;24433;-52
2022/03/16 14:06:36;;;;;;;16.67;15.17;;;;;;;;;;4952629;28;24468;-52
2022/03/16 14:09:01;;;;;;;17.20;15.60;;;;;;;;;;4952060;28;24421;-52
2022/03/16 14:11:32;;;;;;;17.40;15.80;;;;;;;;;;4965793;28;24452;-52
2022/03/16 14:13:58;;;;;;;18.35;16.65;;;;;;;;;;4969060;28;24449;-52
2022/03/16 14:16:23;;;;;;;16.35;14.85;;;;;;;;;;4968874;28;24420;-52
2022/03/16 14:18:48;;;;;;;18.83;17.13;;;;;;;;;;4951548;28;25368;-52
2022/03/16 14:21:13;;;;;;;17.55;15.75;;;;;;;;;;4962990;28;24592;-52
2022/03/16 14:23:39;;;;;;;27.80;17.20;;;;;;;;;;4952150;28;24758;-52
2022/03/16 14:26:04;;;;;;;18.93;17.23;;;;;;;;;;4953367;28;24433;-52
2022/03/16 14:28:30;;;;;;;18.73;16.93;;;;;;;;;;4968685;28;24804;-52
2022/03/16 14:30:55;;;;;;;16.33;14.83;;;;;;;;;;4968294;28;25038;-52
2022/03/16 14:33:24;;;;;;;17.00;15.30;;;;;;;;;;4957252;28;24509;-52
2022/03/16 14:35:51;;;;;;;16.95;15.02;;;;;;;;;;4953984;28;24426;-52